Time;durP1;ratioP1;P1;durP2;ratioP2;P2;SDS_P1;SDS_P2;PMS_P1;PMS_P2;Temp;Humidity;BMP_temperature;BMP_pressure;BME280_temperature;BME280_humidity;BME280_pressure;Samples;Min_cycle;Max_cycle;Signal;HPM_P1;HPM_P2
2022/01/22 00:01:23;;;;;;;;;;;23.80;45.70;;;;;;1559433;76;730;-73
2022/01/22 00:03:25;;;;;;;;;;;23.80;45.70;;;;;;1559415;75;778;-72
2022/01/22 00:05:27;;;;;;;;;;;23.80;45.70;;;;;;1568520;73;1136;-71
2022/01/22 00:07:29;;;;;;;;;;;23.80;45.70;;;;;;1562683;75;676;-72
2022/01/22 00:09:38;;;;;;;;;;;23.80;45.70;;;;;;1559493;75;1923;-72
2022/01/22 00:11:38;;;;;;;;;;;23.90;45.70;;;;;;1555067;75;1060;-70
2022/01/22 00:15:59;;;;;;;;;;;23.80;45.70;;;;;;1559230;75;1645;-72
2022/01/22 00:18:00;;;;;;;;;;;23.80;45.70;;;;;;1559614;75;730;-72
2022/01/22 00:20:03;;;;;;;;;;;23.80;45.70;;;;;;1550109;75;789;-73
2022/01/22 00:22:05;;;;;;;;;;;23.80;45.70;;;;;;1565421;75;711;-72
2022/01/22 00:24:10;;;;;;;;;;;23.80;45.70;;;;;;1559577;75;699;-72
2022/01/22 00:26:11;;;;;;;;;;;23.80;45.70;;;;;;1572974;74;1166;-72
2022/01/22 00:28:13;;;;;;;;;;;23.80;45.80;;;;;;1551324;75;1946;-72
2022/01/22 00:30:16;;;;;;;;;;;23.80;45.80;;;;;;1554005;75;637;-72
2022/01/22 00:32:18;;;;;;;;;;;23.80;45.80;;;;;;1554902;75;1101;-73
2022/01/22 00:34:20;;;;;;;;;;;23.80;45.80;;;;;;1551170;75;756;-73
2022/01/22 00:36:22;;;;;;;;;;;23.80;45.70;;;;;;1560186;75;1157;-72
2022/01/22 00:38:24;;;;;;;;;;;23.90;45.90;;;;;;1549924;75;921;-72
2022/01/22 00:40:26;;;;;;;;;;;23.70;45.80;;;;;;1564088;75;688;-72
2022/01/22 00:42:27;;;;;;;;;;;23.80;45.80;;;;;;1562461;75;721;-73
2022/01/22 00:44:29;;;;;;;;;;;23.80;45.80;;;;;;1567023;75;739;-72
2022/01/22 00:46:31;;;;;;;;;;;23.80;45.80;;;;;;1558477;75;1158;-71
2022/01/22 00:48:33;;;;;;;;;;;23.80;45.80;;;;;;1555450;75;1926;-73
2022/01/22 00:50:35;;;;;;;;;;;23.80;45.80;;;;;;1567909;75;751;-73
2022/01/22 00:52:37;;;;;;;;;;;23.70;45.90;;;;;;1559575;75;728;-72
2022/01/22 00:54:39;;;;;;;;;;;23.90;46.00;;;;;;1552023;75;678;-73
2022/01/22 00:56:40;;;;;;;;;;;23.70;45.90;;;;;;1542357;75;1075;-72
2022/01/22 00:58:42;;;;;;;;;;;23.90;46.00;;;;;;1559003;75;711;-72
2022/01/22 01:00:44;;;;;;;;;;;23.80;45.90;;;;;;1581666;75;725;-72
2022/01/22 01:02:46;;;;;;;;;;;23.90;46.00;;;;;;1561674;75;735;-73
2022/01/22 01:04:48;;;;;;;;;;;23.80;45.80;;;;;;1551555;76;766;-72
2022/01/22 01:06:50;;;;;;;;;;;23.70;45.90;;;;;;1559465;75;757;-72
2022/01/22 01:08:52;;;;;;;;;;;23.70;46.00;;;;;;1561583;75;1933;-73
2022/01/22 01:10:54;;;;;;;;;;;23.70;46.00;;;;;;1579008;75;784;-73
2022/01/22 01:12:56;;;;;;;;;;;23.80;46.00;;;;;;1559555;75;686;-73
2022/01/22 01:33:48;;;;;;;;;;;23.70;46.10;;;;;;1546396;75;1635;-73
2022/01/22 01:35:42;;;;;;;;;;;23.80;46.00;;;;;;1557822;75;1188;-73
2022/01/22 01:37:44;;;;;;;;;;;23.70;46.10;;;;;;1555335;75;738;-72
2022/01/22 01:39:49;;;;;;;;;;;23.70;46.10;;;;;;1549333;75;705;-72
2022/01/22 01:42:02;;;;;;;;;;;23.70;46.10;;;;;;1570738;74;1567;-73
2022/01/22 01:44:00;;;;;;;;;;;23.70;46.10;;;;;;1562915;75;1603;-72
2022/01/22 01:46:02;;;;;;;;;;;23.70;46.10;;;;;;1559177;75;1118;-72
2022/01/22 01:48:08;;;;;;;;;;;23.70;46.10;;;;;;1572437;75;712;-72
2022/01/22 01:50:08;;;;;;;;;;;23.70;46.10;;;;;;1557841;76;1908;-73
2022/01/22 01:52:15;;;;;;;;;;;23.70;46.10;;;;;;1556332;76;678;-72
2022/01/22 01:58:55;;;;;;;;;;;23.70;46.00;;;;;;1540100;75;1634;-72
2022/01/22 02:00:56;;;;;;;;;;;23.70;46.10;;;;;;1567200;74;1161;-72
2022/01/22 02:02:59;;;;;;;;;;;23.70;46.10;;;;;;1559532;75;730;-73
2022/01/22 02:05:01;;;;;;;;;;;23.70;46.20;;;;;;1552231;75;1172;-72
2022/01/22 02:07:03;;;;;;;;;;;23.70;46.20;;;;;;1553795;75;696;-73
2022/01/22 02:09:07;;;;;;;;;;;23.60;46.00;;;;;;1547016;76;1939;-73
2022/01/22 02:11:10;;;;;;;;;;;23.70;46.20;;;;;;1554198;75;1623;-72
2022/01/22 02:24:52;;;;;;;;;;;23.60;46.10;;;;;;1556726;75;1644;-73
2022/01/22 02:26:54;;;;;;;;;;;23.70;46.20;;;;;;1552743;75;722;-73
2022/01/22 02:28:56;;;;;;;;;;;23.70;46.30;;;;;;1554181;75;1930;-73
2022/01/22 02:31:10;;;;;;;;;;;23.70;46.20;;;;;;1559527;76;837;-73
2022/01/22 02:35:25;;;;;;;;;;;23.70;46.20;;;;;;1565212;75;1095;-73
2022/01/22 02:37:23;;;;;;;;;;;23.70;46.20;;;;;;1568372;75;1182;-72
2022/01/22 02:39:57;;;;;;;;;;;23.70;46.20;;;;;;1562865;74;1081;-72
2022/01/22 02:41:44;;;;;;;;;;;23.70;46.30;;;;;;1560240;75;1137;-73
2022/01/22 02:43:49;;;;;;;;;;;23.70;46.30;;;;;;1559685;75;682;-73
2022/01/22 02:45:51;;;;;;;;;;;23.60;46.20;;;;;;1562009;75;1167;-73
2022/01/22 02:47:54;;;;;;;;;;;23.70;46.30;;;;;;1558843;75;829;-73
2022/01/22 02:49:56;;;;;;;;;;;23.70;46.30;;;;;;1558526;75;1934;-74
2022/01/22 02:52:03;;;;;;;;;;;23.70;46.30;;;;;;1559543;75;716;-74
2022/01/22 02:54:05;;;;;;;;;;;23.70;46.30;;;;;;1564801;75;1123;-74
2022/01/22 02:56:07;;;;;;;;;;;23.70;46.30;;;;;;1544530;75;1112;-75
2022/01/22 02:58:09;;;;;;;;;;;23.70;46.30;;;;;;1559181;75;733;-73
2022/01/22 03:00:12;;;;;;;;;;;23.70;46.30;;;;;;1561406;75;727;-73
2022/01/22 03:02:14;;;;;;;;;;;23.70;46.30;;;;;;1541149;75;676;-72
2022/01/22 03:04:17;;;;;;;;;;;23.70;46.30;;;;;;1562885;75;714;-73
2022/01/22 03:06:19;;;;;;;;;;;23.70;46.30;;;;;;1565402;75;1138;-72
2022/01/22 03:08:25;;;;;;;;;;;23.70;46.30;;;;;;1563241;75;735;-72
2022/01/22 03:10:26;;;;;;;;;;;23.70;46.30;;;;;;1570302;75;1956;-73
2022/01/22 03:17:23;;;;;;;;;;;23.70;46.30;;;;;;1547313;76;1189;-72
2022/01/22 03:19:09;;;;;;;;;;;23.70;46.40;;;;;;1557224;75;978;-73
2022/01/22 03:23:11;;;;;;;;;;;23.70;46.30;;;;;;1512660;75;1031;-72
2022/01/22 03:27:31;;;;;;;;;;;23.70;46.30;;;;;;1552212;75;1662;-73
2022/01/22 03:29:39;;;;;;;;;;;23.70;46.30;;;;;;1570621;75;1914;-73
2022/01/22 03:31:41;;;;;;;;;;;23.70;46.40;;;;;;1546381;75;1156;-73
2022/01/22 03:33:43;;;;;;;;;;;23.70;46.40;;;;;;1559593;75;699;-73
2022/01/22 03:35:53;;;;;;;;;;;23.70;46.40;;;;;;1558692;75;1109;-73
2022/01/22 03:37:55;;;;;;;;;;;23.70;46.40;;;;;;1569223;75;1550;-72
2022/01/22 03:39:54;;;;;;;;;;;23.80;46.30;;;;;;1544452;76;1553;-73
2022/01/22 03:41:56;;;;;;;;;;;23.90;46.40;;;;;;1549896;76;754;-72
2022/01/22 03:43:57;;;;;;;;;;;23.90;46.30;;;;;;1559441;75;730;-72
2022/01/22 03:45:59;;;;;;;;;;;23.90;46.30;;;;;;1572142;74;1139;-73
2022/01/22 03:48:01;;;;;;;;;;;23.80;46.20;;;;;;1558510;76;744;-72
2022/01/22 03:50:03;;;;;;;;;;;23.90;46.30;;;;;;1568430;75;1942;-73
2022/01/22 03:52:06;;;;;;;;;;;23.80;46.20;;;;;;1554650;75;720;-73
2022/01/22 03:54:07;;;;;;;;;;;23.90;46.30;;;;;;1560144;75;743;-72
2022/01/22 03:56:11;;;;;;;;;;;23.90;46.30;;;;;;1579237;73;1143;-73
2022/01/22 03:58:13;;;;;;;;;;;23.90;46.30;;;;;;1562515;75;712;-73
2022/01/22 04:00:15;;;;;;;;;;;23.90;46.30;;;;;;1569626;75;718;-74
2022/01/22 04:04:40;;;;;;;;;;;24.00;46.30;;;;;;1559391;75;886;-73
2022/01/22 04:09:03;;;;;;;;;;;24.00;46.30;;;;;;1550456;76;2013;-74
2022/01/22 04:11:03;;;;;;;;;;;24.00;46.20;;;;;;1545742;76;1166;-74
2022/01/22 04:13:09;;;;;;;;;;;24.00;46.20;;;;;;1560200;75;813;-73
2022/01/22 04:15:10;;;;;;;;;;;24.10;46.30;;;;;;1565686;73;1148;-74
2022/01/22 04:26:30;;;;;;;;;;;24.10;46.10;;;;;;1572729;74;1629;-74
2022/01/22 04:28:21;;;;;;;;;;;24.20;46.10;;;;;;1555264;75;958;-72
2022/01/22 04:30:23;;;;;;;;;;;24.20;46.10;;;;;;1567954;75;1934;-72
2022/01/22 04:32:26;;;;;;;;;;;24.20;46.00;;;;;;1563448;75;572;-72
2022/01/22 04:34:27;;;;;;;;;;;24.20;46.00;;;;;;1551439;76;746;-72
2022/01/22 04:36:29;;;;;;;;;;;24.10;46.00;;;;;;1561993;75;1186;-72
2022/01/22 04:38:31;;;;;;;;;;;24.20;46.00;;;;;;1559536;75;650;-71
2022/01/22 04:40:33;;;;;;;;;;;24.20;46.00;;;;;;1580876;75;744;-74
2022/01/22 04:42:37;;;;;;;;;;;24.20;46.00;;;;;;1560614;75;742;-73
2022/01/22 04:44:49;;;;;;;;;;;24.10;45.90;;;;;;1559215;76;1016;-72
2022/01/22 04:49:10;;;;;;;;;;;24.10;46.10;;;;;;1501710;79;1038;-74
2022/01/22 04:55:21;;;;;;;;;;;24.20;45.90;;;;;;1559237;76;1135;-73
2022/01/22 04:57:23;;;;;;;;;;;24.20;45.90;;;;;;1563483;75;704;-74
2022/01/22 04:59:25;;;;;;;;;;;24.20;45.90;;;;;;1561234;75;707;-73
2022/01/22 05:01:27;;;;;;;;;;;24.20;45.90;;;;;;1556867;75;717;-74
2022/01/22 05:03:29;;;;;;;;;;;24.20;45.90;;;;;;1560732;75;588;-73
2022/01/22 05:05:31;;;;;;;;;;;24.20;46.00;;;;;;1558940;75;1138;-74
2022/01/22 05:07:33;;;;;;;;;;;24.20;46.00;;;;;;1554420;75;720;-73
2022/01/22 05:09:35;;;;;;;;;;;24.20;46.00;;;;;;1570766;75;1938;-72
2022/01/22 05:11:36;;;;;;;;;;;24.30;46.30;;;;;;1565352;75;735;-73
2022/01/22 05:13:38;;;;;;;;;;;24.20;46.10;;;;;;1539037;75;827;-72
2022/01/22 05:15:41;;;;;;;;;;;24.20;46.00;;;;;;1548213;75;1117;-71
2022/01/22 05:17:44;;;;;;;;;;;24.20;45.90;;;;;;1568341;75;713;-70
2022/01/22 05:21:52;;;;;;;;;;;24.30;46.00;;;;;;1552068;76;862;-74
2022/01/22 05:23:55;;;;;;;;;;;24.20;45.80;;;;;;1561573;75;1710;-73
2022/01/22 05:26:00;;;;;;;;;;;24.30;46.00;;;;;;1549073;75;1600;-72
2022/01/22 05:32:49;;;;;;;;;;;24.20;45.80;;;;;;1554256;75;852;-73
2022/01/22 05:37:06;;;;;;;;;;;24.20;45.80;;;;;;1547134;75;1631;-73
2022/01/22 05:39:09;;;;;;;;;;;24.20;45.80;;;;;;1543472;75;1744;-73
2022/01/22 05:41:11;;;;;;;;;;;24.20;45.80;;;;;;1552546;76;1489;-73
2022/01/22 05:43:13;;;;;;;;;;;24.20;45.80;;;;;;1572464;75;731;-73
2022/01/22 05:45:15;;;;;;;;;;;24.20;45.90;;;;;;1571916;75;1168;-72
2022/01/22 05:47:25;;;;;;;;;;;24.20;45.90;;;;;;1560504;75;723;-73
2022/01/22 05:49:22;;;;;;;;;;;24.20;45.90;;;;;;1555270;75;948;-72
2022/01/22 05:51:24;;;;;;;;;;;24.20;45.90;;;;;;1546276;76;1903;-72
2022/01/22 05:59:53;;;;;;;;;;;24.20;45.90;;;;;;1556882;75;1640;-74
2022/01/22 06:01:57;;;;;;;;;;;24.20;45.90;;;;;;1559340;75;776;-73
2022/01/22 06:03:58;;;;;;;;;;;24.20;45.90;;;;;;1559351;75;683;-72
2022/01/22 06:06:00;;;;;;;;;;;24.10;46.00;;;;;;1561467;75;1145;-73
2022/01/22 06:08:02;;;;;;;;;;;24.20;45.90;;;;;;1561544;75;735;-73
2022/01/22 06:10:16;;;;;;;;;;;24.20;46.00;;;;;;1558179;75;1935;-73
2022/01/22 06:14:12;;;;;;;;;;;24.20;45.90;;;;;;1559166;75;883;-72
2022/01/22 06:16:14;;;;;;;;;;;24.20;45.90;;;;;;1561075;75;1151;-73
2022/01/22 06:18:16;;;;;;;;;;;24.20;45.90;;;;;;1559287;75;716;-74
2022/01/22 06:20:18;;;;;;;;;;;24.20;45.90;;;;;;1558195;75;715;-73
2022/01/22 06:22:20;;;;;;;;;;;24.20;45.90;;;;;;1561687;75;669;-73
2022/01/22 06:24:22;;;;;;;;;;;24.20;46.00;;;;;;1559458;75;716;-73
2022/01/22 06:26:24;;;;;;;;;;;24.30;46.00;;;;;;1558781;75;1144;-73
2022/01/22 06:28:26;;;;;;;;;;;24.30;46.00;;;;;;1559369;75;735;-74
2022/01/22 06:30:27;;;;;;;;;;;24.20;46.00;;;;;;1559206;75;1938;-73
2022/01/22 06:32:29;;;;;;;;;;;24.20;45.90;;;;;;1559289;75;759;-72
2022/01/22 06:34:31;;;;;;;;;;;24.30;46.10;;;;;;1558871;75;727;-72
2022/01/22 06:36:33;;;;;;;;;;;24.30;46.00;;;;;;1561460;75;1167;-73
2022/01/22 06:38:35;;;;;;;;;;;24.30;46.00;;;;;;1559294;75;772;-72
2022/01/22 06:42:40;;;;;;;;;;;24.30;46.10;;;;;;1559461;75;751;-72
2022/01/22 06:44:42;;;;;;;;;;;24.30;46.00;;;;;;1560390;75;683;-73
2022/01/22 06:46:45;;;;;;;;;;;24.30;46.00;;;;;;1558944;75;1136;-73
2022/01/22 06:48:47;;;;;;;;;;;24.30;46.00;;;;;;1560571;75;797;-73
2022/01/22 06:50:49;;;;;;;;;;;24.30;46.00;;;;;;1559530;75;1927;-73
2022/01/22 06:53:00;;;;;;;;;;;24.30;46.00;;;;;;1559032;75;743;-73
2022/01/22 06:54:54;;;;;;;;;;;24.40;46.00;;;;;;1552833;75;1170;-75
2022/01/22 06:56:56;;;;;;;;;;;24.40;46.00;;;;;;1556856;76;727;-73
2022/01/22 06:58:58;;;;;;;;;;;24.40;46.00;;;;;;1562707;75;699;-73
2022/01/22 07:01:00;;;;;;;;;;;24.40;46.00;;;;;;1556002;75;642;-75
2022/01/22 07:03:02;;;;;;;;;;;24.50;46.20;;;;;;1562633;75;654;-72
2022/01/22 07:05:04;;;;;;;;;;;24.40;46.10;;;;;;1557244;75;1167;-72
2022/01/22 07:07:08;;;;;;;;;;;24.50;46.00;;;;;;1556350;75;765;-73
2022/01/22 07:09:10;;;;;;;;;;;24.50;46.00;;;;;;1555507;75;716;-72
2022/01/22 07:11:11;;;;;;;;;;;24.50;45.90;;;;;;1567152;75;1929;-72
2022/01/22 07:13:13;;;;;;;;;;;24.50;45.80;;;;;;1562301;75;713;-71
2022/01/22 07:15:15;;;;;;;;;;;24.40;45.70;;;;;;1566477;74;1185;-69
2022/01/22 07:17:18;;;;;;;;;;;24.40;45.70;;;;;;1557983;75;656;-72
2022/01/22 07:19:21;;;;;;;;;;;24.30;45.70;;;;;;1554942;75;911;-71
2022/01/22 07:21:23;;;;;;;;;;;24.30;45.70;;;;;;1557930;75;714;-71
2022/01/22 07:23:55;;;;;;;;;;;24.30;45.70;;;;;;1569000;75;801;-72
2022/01/22 07:25:34;;;;;;;;;;;24.20;45.60;;;;;;1548279;74;1096;-72
2022/01/22 07:27:36;;;;;;;;;;;24.20;45.70;;;;;;1558698;75;743;-73
2022/01/22 07:29:38;;;;;;;;;;;24.20;45.70;;;;;;1559179;75;714;-72
2022/01/22 07:31:40;;;;;;;;;;;24.20;45.70;;;;;;1556315;75;1953;-73
2022/01/22 07:33:42;;;;;;;;;;;24.20;45.70;;;;;;1546651;75;676;-71
2022/01/22 07:35:44;;;;;;;;;;;24.20;45.70;;;;;;1559408;75;1134;-73
2022/01/22 07:37:46;;;;;;;;;;;24.20;45.70;;;;;;1559522;75;752;-74
2022/01/22 07:39:48;;;;;;;;;;;24.10;45.70;;;;;;1580268;75;742;-73
2022/01/22 07:41:51;;;;;;;;;;;24.10;45.70;;;;;;1565879;75;699;-73
2022/01/22 07:43:53;;;;;;;;;;;24.10;45.60;;;;;;1566424;75;730;-72
2022/01/22 07:45:55;;;;;;;;;;;24.10;45.60;;;;;;1567689;74;1201;-73
2022/01/22 07:47:56;;;;;;;;;;;24.10;45.60;;;;;;1569203;75;796;-73
2022/01/22 07:49:58;;;;;;;;;;;24.20;45.60;;;;;;1562147;75;745;-73
2022/01/22 07:52:00;;;;;;;;;;;24.10;45.50;;;;;;1555713;75;1928;-73
2022/01/22 07:54:02;;;;;;;;;;;24.10;45.60;;;;;;1546339;76;684;-73
2022/01/22 07:56:04;;;;;;;;;;;24.00;45.50;;;;;;1561917;75;1173;-72
2022/01/22 07:58:06;;;;;;;;;;;24.20;45.60;;;;;;1559030;75;793;-71
2022/01/22 08:00:08;;;;;;;;;;;24.10;45.70;;;;;;1552406;75;695;-72
2022/01/22 08:02:10;;;;;;;;;;;24.20;45.60;;;;;;1556846;75;719;-71
2022/01/22 08:04:12;;;;;;;;;;;24.10;45.60;;;;;;1534079;76;668;-73
2022/01/22 08:06:14;;;;;;;;;;;24.20;45.60;;;;;;1562383;75;1141;-73
2022/01/22 08:08:16;;;;;;;;;;;24.20;45.50;;;;;;1558363;75;712;-75
2022/01/22 08:10:18;;;;;;;;;;;24.20;45.50;;;;;;1563475;75;884;-75
2022/01/22 08:12:20;;;;;;;;;;;24.20;45.50;;;;;;1556322;75;1904;-72
2022/01/22 08:14:22;;;;;;;;;;;24.20;45.50;;;;;;1562565;75;979;-74
2022/01/22 08:16:25;;;;;;;;;;;24.10;45.50;;;;;;1561968;73;1155;-75
2022/01/22 08:18:27;;;;;;;;;;;24.20;45.50;;;;;;1567154;75;742;-74
2022/01/22 08:20:29;;;;;;;;;;;24.20;45.40;;;;;;1559369;75;786;-73
2022/01/22 08:22:30;;;;;;;;;;;24.10;45.50;;;;;;1547621;75;731;-73
2022/01/22 08:24:32;;;;;;;;;;;24.10;45.50;;;;;;1571519;75;789;-73
2022/01/22 08:26:38;;;;;;;;;;;24.10;45.50;;;;;;1549149;75;1118;-74
2022/01/22 08:31:03;;;;;;;;;;;24.00;45.40;;;;;;1543911;76;1899;-72
2022/01/22 08:37:40;;;;;;;;;;;24.00;45.50;;;;;;1559498;75;1686;-73
2022/01/22 08:39:43;;;;;;;;;;;24.10;45.70;;;;;;1565087;75;729;-74
2022/01/22 08:41:45;;;;;;;;;;;24.20;45.70;;;;;;1548438;75;832;-71
2022/01/22 08:43:47;;;;;;;;;;;24.20;45.80;;;;;;1555354;75;799;-70
2022/01/22 08:45:49;;;;;;;;;;;24.20;45.80;;;;;;1571997;75;1165;-72
2022/01/22 08:47:51;;;;;;;;;;;24.10;45.50;;;;;;1559692;75;724;-70
2022/01/22 08:49:53;;;;;;;;;;;24.10;45.20;;;;;;1556802;75;805;-70
2022/01/22 08:51:55;;;;;;;;;;;24.00;44.50;;;;;;1559451;75;1944;-70
2022/01/22 08:53:59;;;;;;;;;;;24.00;44.70;;;;;;1568354;75;756;-72
2022/01/22 08:56:02;;;;;;;;;;;23.90;44.20;;;;;;1568299;75;1174;-73
2022/01/22 08:58:04;;;;;;;;;;;23.90;44.20;;;;;;1564940;75;813;-74
2022/01/22 09:00:06;;;;;;;;;;;23.80;43.70;;;;;;1559536;75;707;-72
2022/01/22 09:02:08;;;;;;;;;;;23.80;43.90;;;;;;1574560;75;693;-73
2022/01/22 09:04:10;;;;;;;;;;;23.70;44.10;;;;;;1573163;75;773;-73
2022/01/22 09:06:12;;;;;;;;;;;23.80;44.30;;;;;;1551833;75;1153;-72
2022/01/22 09:08:18;;;;;;;;;;;23.70;44.40;;;;;;1558391;75;835;-73
2022/01/22 09:10:17;;;;;;;;;;;23.80;44.40;;;;;;1558637;75;963;-74
2022/01/22 09:12:19;;;;;;;;;;;23.70;44.60;;;;;;1559382;75;1948;-73
2022/01/22 09:14:21;;;;;;;;;;;23.70;44.70;;;;;;1555793;76;664;-72
2022/01/22 09:16:23;;;;;;;;;;;23.70;44.70;;;;;;1571397;73;1199;-74
2022/01/22 09:18:25;;;;;;;;;;;23.70;44.80;;;;;;1569779;75;731;-74
2022/01/22 09:20:43;;;;;;;;;;;23.60;44.70;;;;;;1570043;75;729;-73
2022/01/22 09:22:33;;;;;;;;;;;23.70;44.90;;;;;;1562487;74;1143;-73
2022/01/22 09:24:35;;;;;;;;;;;23.60;44.80;;;;;;1554129;76;719;-71
2022/01/22 09:26:37;;;;;;;;;;;23.60;44.90;;;;;;1558807;75;1152;-74
2022/01/22 09:28:39;;;;;;;;;;;23.60;44.90;;;;;;1559326;75;722;-73
2022/01/22 09:30:41;;;;;;;;;;;23.60;45.00;;;;;;1561998;75;771;-73
2022/01/22 09:32:43;;;;;;;;;;;23.60;45.00;;;;;;1568104;75;1960;-74
2022/01/22 09:34:45;;;;;;;;;;;23.60;45.00;;;;;;1561887;75;736;-74
2022/01/22 09:36:47;;;;;;;;;;;23.60;45.10;;;;;;1564647;75;1086;-73
2022/01/22 09:38:48;;;;;;;;;;;23.60;45.20;;;;;;1557329;74;743;-73
2022/01/22 09:40:50;;;;;;;;;;;23.60;45.20;;;;;;1565430;75;708;-73
2022/01/22 09:42:52;;;;;;;;;;;23.60;45.30;;;;;;1558591;75;663;-73
2022/01/22 09:44:54;;;;;;;;;;;23.50;45.30;;;;;;1556957;75;1140;-73
2022/01/22 09:46:56;;;;;;;;;;;23.60;45.30;;;;;;1563447;76;677;-73
2022/01/22 09:48:58;;;;;;;;;;;23.50;45.40;;;;;;1568024;75;699;-74
2022/01/22 09:51:00;;;;;;;;;;;23.50;45.40;;;;;;1562912;75;1926;-72
2022/01/22 09:53:02;;;;;;;;;;;23.50;45.50;;;;;;1567447;75;700;-74
2022/01/22 09:55:04;;;;;;;;;;;23.50;45.50;;;;;;1557043;75;1167;-73
2022/01/22 09:57:06;;;;;;;;;;;23.50;45.60;;;;;;1568121;74;674;-73
2022/01/22 09:59:10;;;;;;;;;;;23.50;45.70;;;;;;1570212;75;765;-72
2022/01/22 10:01:27;;;;;;;;;;;23.50;45.70;;;;;;1562666;75;741;-73
2022/01/22 10:03:29;;;;;;;;;;;23.50;45.70;;;;;;1557243;75;697;-73
2022/01/22 10:05:34;;;;;;;;;;;23.50;45.70;;;;;;1516265;76;1153;-72
2022/01/22 10:07:37;;;;;;;;;;;23.50;45.80;;;;;;1559406;75;715;-74
2022/01/22 10:09:46;;;;;;;;;;;23.40;45.70;;;;;;1560048;75;739;-72
2022/01/22 10:11:44;;;;;;;;;;;23.50;45.90;;;;;;1561388;75;1925;-72
2022/01/22 10:13:46;;;;;;;;;;;23.50;46.00;;;;;;1559277;75;718;-73
2022/01/22 10:15:49;;;;;;;;;;;23.50;46.00;;;;;;1559675;75;1191;-72
2022/01/22 10:17:52;;;;;;;;;;;23.40;45.90;;;;;;1558896;75;1029;-74
2022/01/22 10:19:54;;;;;;;;;;;23.50;46.00;;;;;;1559493;75;761;-72
2022/01/22 10:21:58;;;;;;;;;;;23.50;46.10;;;;;;1558440;75;752;-73
2022/01/22 10:24:07;;;;;;;;;;;23.40;46.00;;;;;;1562122;75;681;-73
2022/01/22 10:26:12;;;;;;;;;;;23.40;46.00;;;;;;1527658;76;1218;-73
2022/01/22 10:28:25;;;;;;;;;;;23.40;46.00;;;;;;1558096;75;1146;-73
2022/01/22 10:30:37;;;;;;;;;;;23.40;46.10;;;;;;1551096;75;977;-73
2022/01/22 10:32:50;;;;;;;;;;;23.40;46.10;;;;;;1561908;75;1928;-72
2022/01/22 10:34:49;;;;;;;;;;;23.40;46.10;;;;;;1556019;76;1153;-74
2022/01/22 10:36:58;;;;;;;;;;;23.40;46.20;;;;;;1561439;75;1152;-71
2022/01/22 10:39:00;;;;;;;;;;;23.40;46.20;;;;;;1565195;75;701;-73
2022/01/22 10:41:06;;;;;;;;;;;23.40;45.60;;;;;;1563421;75;729;-73
2022/01/22 10:43:34;;;;;;;;;;;23.30;45.70;;;;;;1570198;74;1677;-75
2022/01/22 10:45:39;;;;;;;;;;;23.30;45.80;;;;;;1560414;75;1151;-73
2022/01/22 10:47:39;;;;;;;;;;;23.30;45.80;;;;;;1562638;75;2006;-74
2022/01/22 10:49:41;;;;;;;;;;;23.30;45.90;;;;;;1560731;75;716;-73
2022/01/22 10:51:47;;;;;;;;;;;23.30;45.90;;;;;;1562358;75;1930;-74
2022/01/22 10:53:51;;;;;;;;;;;23.30;46.00;;;;;;1558642;75;739;-74
2022/01/22 10:55:59;;;;;;;;;;;23.30;45.90;;;;;;1560367;75;1155;-71
2022/01/22 10:58:06;;;;;;;;;;;23.30;46.00;;;;;;1559164;75;718;-69
2022/01/22 11:00:09;;;;;;;;;;;23.30;46.00;;;;;;1568418;75;680;-71
2022/01/22 11:02:12;;;;;;;;;;;23.30;46.00;;;;;;1556722;75;1125;-71
2022/01/22 11:04:22;;;;;;;;;;;23.30;46.20;;;;;;1563476;75;639;-72
2022/01/22 11:06:25;;;;;;;;;;;23.20;46.10;;;;;;1561801;75;1144;-74
2022/01/22 11:08:28;;;;;;;;;;;23.30;46.20;;;;;;1561507;75;753;-74
2022/01/22 11:10:30;;;;;;;;;;;23.30;46.20;;;;;;1563956;75;831;-73
2022/01/22 11:12:32;;;;;;;;;;;23.30;46.30;;;;;;1561952;75;1942;-75
2022/01/22 11:14:34;;;;;;;;;;;23.30;46.30;;;;;;1561823;76;731;-75
2022/01/22 11:16:37;;;;;;;;;;;23.30;46.30;;;;;;1555881;75;1149;-72
2022/01/22 11:18:39;;;;;;;;;;;23.20;46.20;;;;;;1560909;75;656;-74
2022/01/22 11:20:41;;;;;;;;;;;23.30;46.30;;;;;;1558974;76;735;-73
2022/01/22 11:22:43;;;;;;;;;;;23.30;46.30;;;;;;1558639;76;723;-73
2022/01/22 11:24:45;;;;;;;;;;;23.30;46.30;;;;;;1562773;75;715;-74
2022/01/22 11:26:50;;;;;;;;;;;23.30;46.30;;;;;;1561282;75;1148;-72
2022/01/22 11:28:52;;;;;;;;;;;23.30;46.30;;;;;;1561036;75;1009;-73
2022/01/22 11:30:54;;;;;;;;;;;23.20;46.30;;;;;;1552597;76;788;-75
2022/01/22 11:32:57;;;;;;;;;;;23.30;46.40;;;;;;1562360;76;1964;-72
2022/01/22 11:35:00;;;;;;;;;;;23.30;46.40;;;;;;1560648;75;1135;-73
2022/01/22 11:37:20;;;;;;;;;;;23.30;46.40;;;;;;1560666;75;703;-73
2022/01/22 11:39:22;;;;;;;;;;;23.30;46.40;;;;;;1559520;75;724;-73
2022/01/22 11:41:24;;;;;;;;;;;23.30;46.50;;;;;;1561245;75;821;-73
2022/01/22 11:43:34;;;;;;;;;;;23.30;46.50;;;;;;1561058;75;738;-72
2022/01/22 11:45:31;;;;;;;;;;;23.30;46.50;;;;;;1525389;76;1178;-74
2022/01/22 11:47:33;;;;;;;;;;;23.20;46.50;;;;;;1562552;75;782;-75
2022/01/22 11:49:35;;;;;;;;;;;23.30;46.60;;;;;;1562627;75;671;-76
2022/01/22 11:51:37;;;;;;;;;;;23.20;46.40;;;;;;1557967;74;731;-73
2022/01/22 11:53:40;;;;;;;;;;;23.30;46.50;;;;;;1557615;75;1926;-73
2022/01/22 11:55:42;;;;;;;;;;;23.30;46.50;;;;;;1554296;75;1137;-73
2022/01/22 11:57:45;;;;;;;;;;;23.30;46.50;;;;;;1551129;75;701;-74
2022/01/22 11:59:46;;;;;;;;;;;23.30;46.50;;;;;;1567943;75;670;-73
2022/01/22 12:01:53;;;;;;;;;;;23.30;46.50;;;;;;1557754;75;721;-74
2022/01/22 12:03:57;;;;;;;;;;;23.20;46.50;;;;;;1561160;75;705;-74
2022/01/22 12:06:04;;;;;;;;;;;23.30;46.50;;;;;;1557087;75;1151;-74
2022/01/22 12:08:06;;;;;;;;;;;23.30;46.50;;;;;;1568183;75;666;-74
2022/01/22 12:14:50;;;;;;;;;;;23.30;46.60;;;;;;1559476;75;1652;-73
2022/01/22 12:16:52;;;;;;;;;;;23.20;46.50;;;;;;1558217;75;1122;-72
2022/01/22 12:18:59;;;;;;;;;;;23.20;46.60;;;;;;1558990;76;680;-73
2022/01/22 12:23:01;;;;;;;;;;;23.20;46.60;;;;;;1559344;75;810;-72
2022/01/22 12:25:16;;;;;;;;;;;23.20;46.60;;;;;;1557323;75;1170;-73
2022/01/22 12:27:36;;;;;;;;;;;23.20;46.60;;;;;;1553177;75;713;-75
2022/01/22 12:29:39;;;;;;;;;;;23.20;46.60;;;;;;1560629;75;738;-74
2022/01/22 12:31:42;;;;;;;;;;;23.30;46.60;;;;;;1555139;75;668;-75
2022/01/22 12:33:45;;;;;;;;;;;23.20;46.60;;;;;;1558765;75;1931;-74
2022/01/22 12:35:47;;;;;;;;;;;23.20;46.60;;;;;;1562472;75;1159;-75
2022/01/22 12:37:52;;;;;;;;;;;23.20;46.60;;;;;;1555891;75;667;-74
2022/01/22 12:39:55;;;;;;;;;;;23.20;46.60;;;;;;1555361;75;1156;-75
2022/01/22 12:41:57;;;;;;;;;;;23.20;46.70;;;;;;1557525;75;1132;-75
2022/01/22 12:44:12;;;;;;;;;;;23.20;46.70;;;;;;1555305;75;723;-75
2022/01/22 12:46:13;;;;;;;;;;;23.20;46.70;;;;;;1556202;75;1186;-75
2022/01/22 12:48:15;;;;;;;;;;;23.20;46.70;;;;;;1568913;75;703;-75
2022/01/22 12:50:18;;;;;;;;;;;23.10;46.70;;;;;;1556732;75;674;-75
2022/01/22 12:52:20;;;;;;;;;;;23.20;46.80;;;;;;1540577;76;1953;-75
2022/01/22 12:54:39;;;;;;;;;;;23.20;46.70;;;;;;1555697;74;666;-73
2022/01/22 12:56:51;;;;;;;;;;;23.20;46.70;;;;;;1562273;75;1176;-75
2022/01/22 12:58:44;;;;;;;;;;;23.20;46.70;;;;;;1554267;75;1130;-74
2022/01/22 13:00:46;;;;;;;;;;;23.20;46.70;;;;;;1563796;75;720;-75
2022/01/22 13:02:55;;;;;;;;;;;23.20;46.70;;;;;;1560481;75;647;-73
2022/01/22 13:04:59;;;;;;;;;;;23.20;46.70;;;;;;1562246;75;1083;-73
2022/01/22 13:07:01;;;;;;;;;;;23.20;46.70;;;;;;1556067;76;724;-75
2022/01/22 13:09:03;;;;;;;;;;;23.20;46.80;;;;;;1563688;75;710;-75
2022/01/22 13:11:07;;;;;;;;;;;23.20;46.80;;;;;;1566906;75;725;-76
2022/01/22 13:13:14;;;;;;;;;;;23.20;46.80;;;;;;1565896;75;1912;-75
2022/01/22 13:15:16;;;;;;;;;;;23.20;46.80;;;;;;1562791;75;1195;-76
2022/01/22 13:17:18;;;;;;;;;;;23.20;46.80;;;;;;1559840;75;796;-75
2022/01/22 13:19:20;;;;;;;;;;;23.20;46.80;;;;;;1566285;75;688;-73
2022/01/22 13:21:22;;;;;;;;;;;23.20;46.80;;;;;;1569635;75;722;-76
2022/01/22 13:23:24;;;;;;;;;;;23.20;46.90;;;;;;1564966;75;605;-75
2022/01/22 13:25:26;;;;;;;;;;;23.20;47.00;;;;;;1559168;76;1162;-77
2022/01/22 13:27:30;;;;;;;;;;;23.10;47.00;;;;;;1570234;75;724;-76
2022/01/22 13:29:42;;;;;;;;;;;23.20;47.00;;;;;;1549324;75;1123;-76
2022/01/22 13:32:02;;;;;;;;;;;23.20;47.10;;;;;;1567452;75;739;-74
2022/01/22 13:34:16;;;;;;;;;;;23.10;47.10;;;;;;1552519;75;1898;-74
2022/01/22 13:45:08;;;;;;;;;;;23.10;47.30;;;;;;1561072;75;1637;-74
2022/01/22 13:49:26;;;;;;;;;;;23.10;47.30;;;;;;1560507;75;1647;-74
2022/01/22 13:51:28;;;;;;;;;;;23.00;47.30;;;;;;1564560;75;699;-74
2022/01/22 13:53:30;;;;;;;;;;;23.10;47.40;;;;;;1563686;75;1933;-73
2022/01/22 13:55:32;;;;;;;;;;;23.10;47.40;;;;;;1560790;75;1217;-74
2022/01/22 13:57:35;;;;;;;;;;;23.00;47.30;;;;;;1560145;75;735;-74
2022/01/22 13:59:37;;;;;;;;;;;23.10;47.30;;;;;;1559506;75;712;-74
2022/01/22 14:04:06;;;;;;;;;;;23.00;47.10;;;;;;1558951;75;1683;-73
2022/01/22 14:06:09;;;;;;;;;;;23.10;47.20;;;;;;1561714;74;1145;-74
2022/01/22 14:08:12;;;;;;;;;;;23.00;46.90;;;;;;1560195;76;711;-74
2022/01/22 14:10:15;;;;;;;;;;;23.00;46.90;;;;;;1565691;74;714;-74